createdAt,value
2022-11-29T00:01:44.176Z,16.97
2022-11-29T00:04:13.021Z,17.10
2022-11-29T00:06:41.778Z,16.43
2022-11-29T00:09:13.306Z,17.87
2022-11-29T00:12:03.801Z,16.93
2022-11-29T00:14:32.369Z,16.80
2022-11-29T00:17:03.085Z,15.27
2022-11-29T00:19:32.950Z,16.70
2022-11-29T00:22:02.372Z,16.30
2022-11-29T00:24:32.614Z,15.93
2022-11-29T00:27:02.873Z,15.63
2022-11-29T00:29:32.057Z,16.27
2022-11-29T00:32:01.095Z,16.30
2022-11-29T00:34:29.987Z,16.23
2022-11-29T00:36:58.798Z,15.53
2022-11-29T00:39:27.653Z,14.90
2022-11-29T00:41:56.428Z,14.47
2022-11-29T00:44:26.738Z,14.90
2022-11-29T00:46:55.310Z,15.17
2022-11-29T00:49:24.173Z,15.40
2022-11-29T00:51:52.841Z,14.50
2022-11-29T00:54:21.855Z,16.10
2022-11-29T00:56:50.861Z,15.07
2022-11-29T00:59:19.450Z,16.47
2022-11-29T01:01:49.652Z,15.13
2022-11-29T01:04:18.718Z,14.97
2022-11-29T01:06:47.310Z,15.67
2022-11-29T01:09:17.045Z,14.60
2022-11-29T01:11:45.649Z,14.90
2022-11-29T01:14:14.596Z,16.00
2022-11-29T01:16:43.257Z,16.60
2022-11-29T01:19:13.379Z,16.57
2022-11-29T01:21:42.305Z,16.33
2022-11-29T01:24:10.845Z,17.20
2022-11-29T01:26:39.458Z,16.27
2022-11-29T01:29:09.141Z,16.77
2022-11-29T01:31:37.848Z,16.70
2022-11-29T01:34:08.337Z,16.40
2022-11-29T01:36:38.552Z,16.43
2022-11-29T01:39:07.829Z,16.63
2022-11-29T01:41:38.812Z,17.67
2022-11-29T01:44:46.486Z,17.33
2022-11-29T01:47:15.281Z,17.07
2022-11-29T01:49:47.896Z,16.67
2022-11-29T01:52:20.813Z,17.10
2022-11-29T01:54:53.392Z,17.17
2022-11-29T01:57:22.715Z,17.83
2022-11-29T01:59:53.597Z,16.63
2022-11-29T02:02:28.246Z,17.07
2022-11-29T02:05:00.491Z,17.27
2022-11-29T02:07:30.701Z,16.90
2022-11-29T02:09:59.480Z,18.67
2022-11-29T02:12:38.785Z,16.80
2022-11-29T02:15:22.979Z,18.60
2022-11-29T02:18:02.603Z,18.03
2022-11-29T02:21:03.258Z,18.70
2022-11-29T02:24:20.129Z,17.70
2022-11-29T02:27:28.538Z,18.67
2022-11-29T02:30:09.064Z,18.20
2022-11-29T02:33:14.379Z,19.93
2022-11-29T02:36:12.691Z,19.07
2022-11-29T02:39:08.949Z,19.27
2022-11-29T02:41:51.906Z,18.50
2022-11-29T02:44:41.027Z,17.93
2022-11-29T02:47:20.356Z,19.33
2022-11-29T02:50:14.825Z,18.87
2022-11-29T02:52:51.935Z,18.20
2022-11-29T02:55:25.309Z,18.20
2022-11-29T02:58:00.913Z,19.30
2022-11-29T03:00:29.769Z,19.07
2022-11-29T03:03:04.838Z,18.80
2022-11-29T03:05:42.429Z,19.63
2022-11-29T03:08:19.403Z,19.30
2022-11-29T03:10:57.643Z,18.60
2022-11-29T03:13:39.285Z,19.73
2022-11-29T03:16:13.457Z,17.87
2022-11-29T03:18:56.825Z,18.50
2022-11-29T03:21:40.614Z,19.17
2022-11-29T03:24:15.247Z,19.60
2022-11-29T03:26:49.192Z,19.17
2022-11-29T03:29:24.750Z,18.57
2022-11-29T03:32:01.565Z,18.40
2022-11-29T03:34:41.492Z,18.63
2022-11-29T03:37:17.174Z,18.30
2022-11-29T03:39:52.421Z,18.30
2022-11-29T03:42:27.350Z,18.40
2022-11-29T03:45:04.077Z,19.47
2022-11-29T03:47:38.070Z,18.23
2022-11-29T03:50:11.767Z,19.60
2022-11-29T03:52:48.547Z,18.87
2022-11-29T03:55:33.315Z,18.23
2022-11-29T03:58:18.529Z,18.53
2022-11-29T04:01:16.702Z,20.17
2022-11-29T04:04:06.970Z,18.83
2022-11-29T04:06:48.538Z,19.57
2022-11-29T04:09:35.413Z,19.80
2022-11-29T04:12:38.960Z,19.73
2022-11-29T04:15:40.297Z,19.47
2022-11-29T04:18:57.166Z,18.40
2022-11-29T04:22:07.611Z,20.53
2022-11-29T04:25:05.128Z,19.60
2022-11-29T04:27:54.483Z,20.10
2022-11-29T04:30:24.728Z,20.10
2022-11-29T04:33:26.325Z,20.63
2022-11-29T04:36:21.364Z,22.00
2022-11-29T04:39:18.114Z,21.70
2022-11-29T04:42:32.487Z,20.33
2022-11-29T04:45:28.022Z,20.77
2022-11-29T04:48:13.465Z,22.03
2022-11-29T04:50:54.485Z,22.23
2022-11-29T04:53:35.720Z,21.10
2022-11-29T04:56:14.710Z,22.30
2022-11-29T04:58:54.645Z,21.07
2022-11-29T05:01:32.984Z,23.23
2022-11-29T05:04:08.304Z,22.20
2022-11-29T05:06:44.695Z,21.70
2022-11-29T05:09:24.475Z,22.57
2022-11-29T05:12:04.487Z,22.80
2022-11-29T05:14:44.594Z,22.20
2022-11-29T05:17:31.825Z,23.27
2022-11-29T05:20:24.091Z,23.33
2022-11-29T05:23:08.424Z,22.50
2022-11-29T05:25:45.992Z,22.90
2022-11-29T05:28:22.430Z,22.73
2022-11-29T05:31:12.659Z,22.73
2022-11-29T05:34:12.799Z,23.07
2022-11-29T05:36:47.659Z,23.70
2022-11-29T05:39:32.153Z,22.33
2022-11-29T05:42:23.661Z,23.80
2022-11-29T05:44:58.072Z,23.20
2022-11-29T05:47:33.526Z,24.27
2022-11-29T05:50:11.856Z,24.73
2022-11-29T05:52:51.427Z,24.67
2022-11-29T05:55:28.498Z,23.60
2022-11-29T05:58:02.359Z,24.93
2022-11-29T06:00:42.173Z,24.53
2022-11-29T06:03:19.199Z,23.07
2022-11-29T06:05:53.047Z,23.27
2022-11-29T06:08:31.665Z,24.53
2022-11-29T06:11:07.027Z,25.80
2022-11-29T06:13:50.975Z,24.50
2022-11-29T06:16:42.034Z,24.67
2022-11-29T06:19:37.513Z,25.10
2022-11-29T06:22:21.870Z,24.73
2022-11-29T06:25:03.506Z,26.53
2022-11-29T06:27:49.337Z,25.43
2022-11-29T06:30:21.530Z,24.97
2022-11-29T06:32:56.664Z,25.27
2022-11-29T06:35:39.109Z,26.67
2022-11-29T06:38:13.865Z,26.40
2022-11-29T06:40:43.171Z,26.17
2022-11-29T06:43:12.353Z,25.70
2022-11-29T06:45:44.172Z,25.63
2022-11-29T06:48:21.144Z,25.03
2022-11-29T06:50:56.838Z,26.13
2022-11-29T06:53:37.384Z,26.73
2022-11-29T06:56:14.617Z,25.83
2022-11-29T06:58:52.315Z,28.70
2022-11-29T07:01:27.395Z,27.00
2022-11-29T07:04:21.214Z,26.23
2022-11-29T07:06:50.351Z,28.17
2022-11-29T07:09:24.078Z,28.77
2022-11-29T07:11:53.373Z,26.90
2022-11-29T07:14:22.710Z,26.97
2022-11-29T07:16:58.211Z,28.10
2022-11-29T07:19:37.688Z,27.27
2022-11-29T07:22:16.562Z,29.33
2022-11-29T07:24:56.856Z,28.47
2022-11-29T07:27:33.328Z,29.73
2022-11-29T07:30:10.993Z,28.43
2022-11-29T07:32:52.064Z,30.80
2022-11-29T07:35:30.689Z,28.00
2022-11-29T07:38:09.929Z,29.53
2022-11-29T07:40:47.064Z,29.13
2022-11-29T07:43:27.919Z,29.73
2022-11-29T07:45:57.674Z,30.23
2022-11-29T07:48:27.027Z,29.37
2022-11-29T07:50:56.245Z,31.20
2022-11-29T07:53:25.558Z,29.87
2022-11-29T07:55:55.599Z,29.83
2022-11-29T07:58:24.406Z,30.93
2022-11-29T08:00:53.082Z,31.10
2022-11-29T08:03:21.814Z,30.80
2022-11-29T08:05:50.779Z,31.87
2022-11-29T08:08:20.047Z,30.27
2022-11-29T08:10:49.658Z,34.10
2022-11-29T08:13:22.184Z,31.30
2022-11-29T08:15:51.137Z,31.63
2022-11-29T08:18:23.583Z,31.43
2022-11-29T08:20:52.723Z,33.27
2022-11-29T08:23:21.458Z,32.13
2022-11-29T08:25:50.445Z,32.07
2022-11-29T08:28:19.530Z,31.37
2022-11-29T08:30:49.499Z,32.20
2022-11-29T08:33:18.474Z,31.53
2022-11-29T08:35:47.543Z,32.23
2022-11-29T08:38:19.456Z,31.73
2022-11-29T08:40:48.463Z,32.53
2022-11-29T08:43:17.182Z,32.03
2022-11-29T08:45:46.483Z,31.73
2022-11-29T08:48:17.081Z,32.47
2022-11-29T08:50:46.276Z,33.30
2022-11-29T08:53:32.226Z,32.47
2022-11-29T08:56:01.670Z,31.93
2022-11-29T08:58:30.791Z,32.47
2022-11-29T09:01:00.306Z,33.00
2022-11-29T09:03:47.783Z,31.67
2022-11-29T09:06:21.719Z,31.77
2022-11-29T09:08:51.369Z,32.93
2022-11-29T09:11:23.096Z,33.43
2022-11-29T09:13:53.969Z,32.23
2022-11-29T09:16:26.254Z,33.37
2022-11-29T09:18:57.455Z,31.33
2022-11-29T09:21:28.275Z,31.23
2022-11-29T09:23:59.737Z,30.73
2022-11-29T09:26:35.769Z,30.77
2022-11-29T09:29:07.923Z,32.57
2022-11-29T09:31:37.198Z,30.40
2022-11-29T09:34:09.327Z,31.50
2022-11-29T09:36:37.944Z,30.17
2022-11-29T09:39:06.892Z,32.03
2022-11-29T09:42:05.246Z,32.10
2022-11-29T09:44:44.003Z,31.40
2022-11-29T09:47:31.325Z,31.27
2022-11-29T09:50:21.151Z,32.00
2022-11-29T09:52:55.969Z,31.37
2022-11-29T09:55:40.113Z,30.00
2022-11-29T09:58:15.756Z,30.33
2022-11-29T10:00:50.495Z,28.40
2022-11-29T10:03:26.975Z,30.23
2022-11-29T10:06:02.324Z,30.60
2022-11-29T10:08:35.729Z,30.53
2022-11-29T10:11:17.268Z,31.00
2022-11-29T10:13:51.612Z,30.57
2022-11-29T10:16:26.662Z,30.97
2022-11-29T10:19:03.078Z,30.27
2022-11-29T10:21:37.554Z,30.37
2022-11-29T10:24:11.813Z,30.07
2022-11-29T10:26:40.801Z,30.40
2022-11-29T10:29:13.984Z,29.23
2022-11-29T10:31:46.972Z,31.67
2022-11-29T10:34:17.255Z,28.90
2022-11-29T10:36:50.132Z,28.60
2022-11-29T10:39:24.346Z,30.83
2022-11-29T10:41:56.852Z,28.50
2022-11-29T10:44:26.746Z,29.80
2022-11-29T10:46:56.491Z,31.23
2022-11-29T10:49:29.051Z,30.43
2022-11-29T10:51:59.295Z,29.47
2022-11-29T10:54:35.746Z,30.67
2022-11-29T10:57:14.435Z,28.67
2022-11-29T10:59:43.084Z,29.17
2022-11-29T11:02:20.615Z,29.50
2022-11-29T11:04:50.140Z,30.13
2022-11-29T11:07:27.053Z,29.30
2022-11-29T11:09:58.037Z,29.37
2022-11-29T11:12:29.080Z,29.87
2022-11-29T11:15:18.065Z,30.73
2022-11-29T11:18:06.288Z,31.13
2022-11-29T11:20:37.934Z,30.07
2022-11-29T11:23:21.439Z,30.47
2022-11-29T11:25:56.666Z,31.27
2022-11-29T11:28:28.335Z,28.83
2022-11-29T11:30:59.888Z,29.97
2022-11-29T11:33:30.258Z,29.87
2022-11-29T11:36:05.052Z,29.87
2022-11-29T11:38:35.540Z,32.00
2022-11-29T11:41:17.685Z,28.93
2022-11-29T11:43:55.988Z,29.83
2022-11-29T11:46:25.135Z,30.37
2022-11-29T11:48:54.209Z,28.77
2022-11-29T11:51:27.024Z,29.57
2022-11-29T11:53:58.834Z,28.17
2022-11-29T11:56:35.931Z,31.03
2022-11-29T11:59:05.182Z,31.37
2022-11-29T12:01:39.628Z,29.80
2022-11-29T12:04:13.880Z,31.17
2022-11-29T12:06:49.751Z,30.07
2022-11-29T12:09:43.204Z,29.13
2022-11-29T12:12:16.691Z,30.07
2022-11-29T12:14:54.500Z,30.67
2022-11-29T12:17:31.280Z,28.77
2022-11-29T12:20:13.916Z,28.00
2022-11-29T12:22:49.579Z,28.53
2022-11-29T12:25:24.318Z,29.47
2022-11-29T12:27:55.967Z,30.10
2022-11-29T12:30:24.914Z,29.00
2022-11-29T12:33:08.929Z,29.97
2022-11-29T12:36:04.579Z,29.40
2022-11-29T12:38:49.779Z,29.90
2022-11-29T12:41:33.700Z,28.17
2022-11-29T12:44:14.618Z,29.90
2022-11-29T12:46:50.412Z,27.97
2022-11-29T12:49:30.933Z,28.03
2022-11-29T12:52:09.900Z,29.70
2022-11-29T12:54:56.949Z,28.43
2022-11-29T12:57:38.989Z,29.83
2022-11-29T13:00:10.848Z,29.57
2022-11-29T13:02:49.385Z,30.50
2022-11-29T13:05:37.501Z,29.90
2022-11-29T13:08:22.719Z,31.43
2022-11-29T13:11:01.824Z,31.27
2022-11-29T13:13:40.865Z,29.20
2022-11-29T13:16:26.349Z,30.97
2022-11-29T13:19:06.154Z,29.77
2022-11-29T13:21:41.438Z,31.27
2022-11-29T13:24:14.970Z,30.67
2022-11-29T13:26:46.371Z,30.10
2022-11-29T13:29:19.339Z,29.47
2022-11-29T13:31:49.245Z,30.50
2022-11-29T13:34:23.620Z,31.20
2022-11-29T13:37:11.345Z,31.70
2022-11-29T13:39:53.649Z,31.93
2022-11-29T13:42:30.276Z,30.60
2022-11-29T13:45:07.702Z,31.33
2022-11-29T13:47:50.608Z,32.60
2022-11-29T13:50:41.004Z,30.07
2022-11-29T13:53:16.652Z,32.53
2022-11-29T13:55:48.295Z,32.77
2022-11-29T13:58:36.499Z,30.87
2022-11-29T14:01:10.578Z,30.70
2022-11-29T14:03:44.985Z,30.60
2022-11-29T14:06:18.762Z,31.50
2022-11-29T14:09:25.183Z,31.80
2022-11-29T14:12:01.703Z,30.53
2022-11-29T14:14:35.545Z,30.63
2022-11-29T14:17:07.762Z,29.53
2022-11-29T14:19:38.193Z,30.37
2022-11-29T14:22:21.646Z,29.97
2022-11-29T14:25:11.764Z,30.53
2022-11-29T14:27:59.851Z,32.23
2022-11-29T14:30:50.638Z,30.40
2022-11-29T14:33:53.674Z,31.60
2022-11-29T14:36:43.522Z,31.63
2022-11-29T14:39:31.957Z,31.27
2022-11-29T14:42:14.706Z,34.57
2022-11-29T14:44:50.949Z,34.50
2022-11-29T14:47:29.994Z,34.37
2022-11-29T14:50:04.150Z,32.77
2022-11-29T14:52:36.794Z,31.33
2022-11-29T14:55:08.988Z,31.97
2022-11-29T14:58:17.167Z,30.57
2022-11-29T15:01:10.417Z,30.80
2022-11-29T15:03:50.016Z,30.77
2022-11-29T15:06:27.171Z,30.93
2022-11-29T15:09:02.818Z,29.63
2022-11-29T15:11:44.574Z,30.30
2022-11-29T15:14:20.547Z,30.97
2022-11-29T15:17:16.883Z,30.40
2022-11-29T15:19:59.359Z,31.97
2022-11-29T15:22:34.376Z,31.33
2022-11-29T15:25:07.209Z,31.97
2022-11-29T15:27:50.549Z,31.50
2022-11-29T15:30:20.718Z,31.93
2022-11-29T15:32:50.406Z,33.30
2022-11-29T15:35:19.854Z,30.97
2022-11-29T15:37:51.232Z,31.37
2022-11-29T15:40:22.446Z,31.07
2022-11-29T15:42:57.919Z,30.43
2022-11-29T15:45:33.613Z,32.27
2022-11-29T15:48:14.685Z,30.70
2022-11-29T15:50:48.214Z,32.00
2022-11-29T15:53:22.415Z,31.47
2022-11-29T15:55:53.793Z,32.47
2022-11-29T15:58:22.799Z,32.33
2022-11-29T16:00:52.940Z,33.73
2022-11-29T16:03:27.057Z,32.13
2022-11-29T16:06:06.235Z,32.53
2022-11-29T16:08:41.732Z,32.67
2022-11-29T16:11:17.072Z,32.30
2022-11-29T16:14:05.840Z,32.30
2022-11-29T16:16:35.702Z,30.60
2022-11-29T16:19:20.031Z,30.20
2022-11-29T16:22:04.341Z,29.90
2022-11-29T16:24:35.499Z,31.10
2022-11-29T16:27:06.327Z,31.57
2022-11-29T16:29:38.552Z,31.97
2022-11-29T16:32:15.922Z,31.30
2022-11-29T16:34:46.092Z,32.20
2022-11-29T16:37:20.443Z,31.97
2022-11-29T16:39:59.574Z,32.27
2022-11-29T16:42:33.761Z,31.13
2022-11-29T16:45:27.948Z,32.00
2022-11-29T16:47:59.625Z,30.70
2022-11-29T16:50:29.074Z,30.70
2022-11-29T16:53:18.346Z,31.87
2022-11-29T16:55:48.431Z,32.30
2022-11-29T16:58:17.298Z,32.87
2022-11-29T17:00:45.967Z,31.70
2022-11-29T17:03:14.724Z,31.50
2022-11-29T17:05:44.891Z,31.30
2022-11-29T17:08:14.154Z,32.63
2022-11-29T17:10:43.991Z,34.03
2022-11-29T17:13:15.039Z,33.80
2022-11-29T17:15:43.904Z,33.37
2022-11-29T17:18:12.592Z,36.63
2022-11-29T17:20:41.276Z,35.13
2022-11-29T17:23:10.559Z,32.13
2022-11-29T17:25:39.401Z,32.30
2022-11-29T17:28:08.728Z,31.67
2022-11-29T17:30:38.711Z,31.13
2022-11-29T17:33:07.424Z,31.37
2022-11-29T17:35:36.391Z,35.53
2022-11-29T17:38:05.115Z,34.93
2022-11-29T17:40:33.939Z,31.80
2022-11-29T17:43:02.921Z,33.00
2022-11-29T17:45:31.574Z,33.33
2022-11-29T17:48:01.665Z,31.60
2022-11-29T17:50:30.971Z,31.93
2022-11-29T17:52:59.827Z,32.93
2022-11-29T17:55:29.725Z,30.27
2022-11-29T17:57:58.471Z,31.93
2022-11-29T18:00:27.266Z,34.70
2022-11-29T18:02:55.813Z,32.33
2022-11-29T18:05:30.136Z,34.33
2022-11-29T18:08:01.784Z,31.33
2022-11-29T18:10:32.500Z,34.57
2022-11-29T18:13:01.584Z,32.00
2022-11-29T18:15:30.253Z,31.30
2022-11-29T18:17:58.802Z,31.83
2022-11-29T18:20:28.786Z,31.50
2022-11-29T18:22:57.321Z,31.47
2022-11-29T18:25:41.136Z,33.37
2022-11-29T18:28:11.463Z,31.60
2022-11-29T18:30:40.673Z,33.00
2022-11-29T18:33:09.271Z,33.33
2022-11-29T18:35:39.854Z,30.67
2022-11-29T18:38:16.766Z,31.27
2022-11-29T18:40:46.695Z,33.90
2022-11-29T18:43:17.333Z,33.50
2022-11-29T18:45:48.902Z,32.93
2022-11-29T18:48:17.736Z,33.13
2022-11-29T18:50:47.707Z,35.07
2022-11-29T18:53:16.434Z,33.20
2022-11-29T18:55:44.974Z,33.27
2022-11-29T18:58:13.666Z,33.73
2022-11-29T19:00:42.263Z,33.23
2022-11-29T19:03:11.222Z,34.03
2022-11-29T19:05:39.838Z,36.77
2022-11-29T19:08:09.898Z,35.77
2022-11-29T19:10:39.512Z,43.13
2022-11-29T19:13:09.000Z,37.73
2022-11-29T19:15:37.798Z,32.43
2022-11-29T19:18:06.522Z,33.40
2022-11-29T19:20:35.412Z,34.10
2022-11-29T19:23:04.279Z,32.87
2022-11-29T19:25:36.725Z,31.37
2022-11-29T19:28:12.542Z,33.80
2022-11-29T19:30:43.240Z,35.40
2022-11-29T19:33:14.347Z,32.80
2022-11-29T19:35:43.662Z,33.73
2022-11-29T19:38:15.619Z,33.13
2022-11-29T19:40:46.152Z,32.20
2022-11-29T19:43:16.287Z,32.00
2022-11-29T19:45:45.436Z,31.67
2022-11-29T19:48:14.321Z,32.90
2022-11-29T19:50:43.554Z,31.83
2022-11-29T19:53:14.033Z,32.67
2022-11-29T19:55:44.229Z,33.27
2022-11-29T19:58:15.045Z,32.17
2022-11-29T20:00:44.271Z,32.23
2022-11-29T20:03:13.519Z,32.47
2022-11-29T20:05:42.806Z,33.63
2022-11-29T20:08:15.964Z,31.83
2022-11-29T20:10:48.684Z,33.40
2022-11-29T20:13:19.206Z,35.10
2022-11-29T20:15:48.299Z,32.23
2022-11-29T20:18:17.550Z,33.47
2022-11-29T20:20:46.938Z,32.33
2022-11-29T20:23:15.653Z,32.17
2022-11-29T20:25:50.130Z,32.87
2022-11-29T20:28:20.365Z,31.87
2022-11-29T20:30:49.067Z,33.20
2022-11-29T20:33:22.367Z,31.77
2022-11-29T20:35:55.531Z,33.07
2022-11-29T20:38:35.230Z,33.17
2022-11-29T20:41:16.374Z,32.73
2022-11-29T20:43:51.753Z,32.53
2022-11-29T20:46:21.279Z,33.23
2022-11-29T20:48:51.539Z,32.97
2022-11-29T20:51:25.950Z,32.90
2022-11-29T20:53:55.193Z,33.77
2022-11-29T20:56:24.150Z,33.63
2022-11-29T20:58:56.783Z,34.30
2022-11-29T21:01:26.067Z,34.03
2022-11-29T21:03:55.185Z,32.23
2022-11-29T21:06:24.303Z,34.03
2022-11-29T21:08:53.381Z,34.57
2022-11-29T21:11:24.104Z,34.70
2022-11-29T21:13:55.310Z,34.20
2022-11-29T21:16:29.802Z,33.07
2022-11-29T21:19:02.627Z,34.77
2022-11-29T21:21:37.741Z,36.43
2022-11-29T21:24:15.233Z,34.33
2022-11-29T21:26:50.568Z,35.63
2022-11-29T21:29:23.760Z,34.83
2022-11-29T21:31:55.014Z,34.40
2022-11-29T21:34:23.736Z,35.03
2022-11-29T21:37:00.875Z,35.07
2022-11-29T21:39:34.051Z,35.47
2022-11-29T21:42:04.278Z,33.63
2022-11-29T21:44:34.893Z,36.17
2022-11-29T21:47:04.237Z,36.40
2022-11-29T21:49:33.932Z,34.97
2022-11-29T21:52:07.097Z,34.60
2022-11-29T21:54:36.848Z,34.43
2022-11-29T21:57:07.344Z,35.30
2022-11-29T21:59:37.405Z,34.77
2022-11-29T22:02:06.698Z,35.30
2022-11-29T22:04:36.038Z,35.37
2022-11-29T22:07:04.940Z,35.10
2022-11-29T22:09:34.126Z,35.87
2022-11-29T22:12:14.818Z,35.80
2022-11-29T22:14:53.685Z,34.57
2022-11-29T22:17:25.609Z,33.87
2022-11-29T22:19:54.736Z,33.37
2022-11-29T22:22:27.188Z,36.30
2022-11-29T22:24:57.416Z,34.50
2022-11-29T22:27:26.850Z,36.27
2022-11-29T22:29:58.200Z,34.27
2022-11-29T22:32:27.850Z,36.60
2022-11-29T22:34:57.221Z,33.87
2022-11-29T22:37:27.377Z,35.20
2022-11-29T22:39:56.693Z,35.03
2022-11-29T22:42:26.218Z,37.10
2022-11-29T22:45:04.281Z,36.40
2022-11-29T22:47:40.671Z,36.70
2022-11-29T22:50:12.974Z,34.47
2022-11-29T22:52:42.286Z,35.10
2022-11-29T22:55:10.994Z,35.43
2022-11-29T22:57:39.934Z,35.80
2022-11-29T23:00:13.900Z,35.40
2022-11-29T23:02:42.464Z,36.07
2022-11-29T23:05:12.484Z,35.57
2022-11-29T23:07:41.386Z,35.13
2022-11-29T23:10:11.989Z,34.97
2022-11-29T23:12:41.910Z,35.43
2022-11-29T23:15:12.590Z,34.70
2022-11-29T23:17:41.515Z,36.27
2022-11-29T23:20:11.418Z,35.70
2022-11-29T23:22:40.777Z,35.87
2022-11-29T23:25:10.062Z,36.30
2022-11-29T23:27:38.920Z,36.10
2022-11-29T23:30:09.424Z,34.77
2022-11-29T23:32:40.467Z,37.60
2022-11-29T23:35:10.673Z,36.80
2022-11-29T23:37:39.867Z,36.67
2022-11-29T23:40:12.078Z,37.53
2022-11-29T23:42:45.007Z,36.70
2022-11-29T23:45:17.381Z,36.30
2022-11-29T23:47:52.316Z,35.73
2022-11-29T23:50:20.909Z,35.40
2022-11-29T23:52:55.058Z,36.07
2022-11-29T23:55:24.750Z,37.50
2022-11-29T23:57:54.264Z,38.97
